createdAt,value
2022-09-21T00:01:13.559Z,9.10
2022-09-21T00:03:44.225Z,9.00
2022-09-21T00:06:22.103Z,9.00
2022-09-21T00:08:50.234Z,8.90
2022-09-21T00:11:21.533Z,8.90
2022-09-21T00:13:52.014Z,8.90
2022-09-21T00:16:19.055Z,8.90
2022-09-21T00:18:45.999Z,8.90
2022-09-21T00:21:14.993Z,8.80
2022-09-21T00:23:43.079Z,8.80
2022-09-21T00:26:18.941Z,8.80
2022-09-21T00:28:46.339Z,8.80
2022-09-21T00:31:18.832Z,8.70
2022-09-21T00:33:46.076Z,8.70
2022-09-21T00:36:17.143Z,8.70
2022-09-21T00:38:44.997Z,8.70
2022-09-21T00:41:12.665Z,8.60
2022-09-21T00:44:44.379Z,8.60
2022-09-21T00:47:15.711Z,8.60
2022-09-21T00:49:51.688Z,8.60
2022-09-21T00:52:19.824Z,8.50
2022-09-21T00:57:15.638Z,8.40
2022-09-21T00:59:45.129Z,8.40
2022-09-21T01:02:12.388Z,8.40
2022-09-21T01:04:39.670Z,8.40
2022-09-21T01:07:12.408Z,8.30
2022-09-21T01:09:41.286Z,8.30
2022-09-21T01:12:59.448Z,8.30
2022-09-21T01:15:34.792Z,8.20
2022-09-21T01:18:29.349Z,8.20
2022-09-21T01:21:19.157Z,8.10
2022-09-21T01:23:46.136Z,8.10
2022-09-21T01:26:27.429Z,8.20
2022-09-21T01:29:12.445Z,8.20
2022-09-21T01:31:51.459Z,8.20
2022-09-21T01:34:39.213Z,8.20
2022-09-21T01:37:12.803Z,8.20
2022-09-21T01:39:42.125Z,8.30
2022-09-21T01:42:10.786Z,8.30
2022-09-21T01:44:40.484Z,8.30
2022-09-21T01:47:12.706Z,8.30
2022-09-21T01:49:50.780Z,8.30
2022-09-21T01:52:28.517Z,8.30
2022-09-21T01:55:03.977Z,8.30
2022-09-21T01:57:30.856Z,8.30
2022-09-21T02:00:00.407Z,8.30
2022-09-21T02:02:51.562Z,8.30
2022-09-21T02:05:20.464Z,8.30
2022-09-21T02:07:48.608Z,8.30
2022-09-21T02:10:24.781Z,8.20
2022-09-21T02:12:59.697Z,8.30
2022-09-21T02:15:51.643Z,8.20
2022-09-21T02:18:40.861Z,8.20
2022-09-21T02:21:22.312Z,8.20
2022-09-21T02:23:58.004Z,8.20
2022-09-21T02:26:36.160Z,8.10
2022-09-21T02:29:25.921Z,8.10
2022-09-21T02:32:05.291Z,8.10
2022-09-21T02:34:40.880Z,8.20
2022-09-21T02:37:31.896Z,8.20
2022-09-21T02:40:04.610Z,8.20
2022-09-21T02:42:40.806Z,8.20
2022-09-21T02:45:13.676Z,8.20
2022-09-21T02:47:59.138Z,8.20
2022-09-21T02:50:54.479Z,8.20
2022-09-21T02:53:27.381Z,8.20
2022-09-21T02:55:57.650Z,8.20
2022-09-21T02:58:27.131Z,8.30
2022-09-21T03:00:56.667Z,8.10
2022-09-21T03:03:24.945Z,8.10
2022-09-21T03:05:54.534Z,8.10
2022-09-21T03:08:22.547Z,8.10
2022-09-21T03:10:50.896Z,8.00
2022-09-21T03:13:18.953Z,7.90
2022-09-21T03:15:47.353Z,7.90
2022-09-21T03:18:15.213Z,7.90
2022-09-21T03:20:48.196Z,7.90
2022-09-21T03:23:15.126Z,7.80
2022-09-21T03:25:46.216Z,7.70
2022-09-21T03:28:14.799Z,7.70
2022-09-21T03:30:41.861Z,7.80
2022-09-21T03:33:09.325Z,7.80
2022-09-21T03:35:36.263Z,7.80
2022-09-21T03:38:03.403Z,7.80
2022-09-21T03:40:31.042Z,7.80
2022-09-21T03:42:58.396Z,7.80
2022-09-21T03:45:27.506Z,7.80
2022-09-21T03:47:59.004Z,7.80
2022-09-21T03:50:30.614Z,7.70
2022-09-21T03:52:58.496Z,7.80
2022-09-21T03:55:25.823Z,7.70
2022-09-21T03:57:53.199Z,7.70
2022-09-21T04:00:20.758Z,7.70
2022-09-21T04:02:48.004Z,7.70
2022-09-21T04:05:16.468Z,7.70
2022-09-21T04:07:45.960Z,7.70
2022-09-21T04:10:16.262Z,7.70
2022-09-21T04:12:44.404Z,7.70
2022-09-21T04:15:16.682Z,7.70
2022-09-21T04:17:43.641Z,7.70
2022-09-21T04:20:10.580Z,7.70
2022-09-21T04:22:42.708Z,7.60
2022-09-21T04:25:12.222Z,7.60
2022-09-21T04:27:39.495Z,7.50
2022-09-21T04:30:07.517Z,7.60
2022-09-21T04:32:34.828Z,7.60
2022-09-21T04:35:01.742Z,7.60
2022-09-21T04:37:28.760Z,7.60
2022-09-21T04:39:55.997Z,7.60
2022-09-21T04:42:23.436Z,7.60
2022-09-21T04:44:51.495Z,7.60
2022-09-21T04:47:19.477Z,7.60
2022-09-21T04:49:46.460Z,7.60
2022-09-21T04:52:18.340Z,7.40
2022-09-21T04:54:46.543Z,7.30
2022-09-21T04:57:14.485Z,7.30
2022-09-21T04:59:41.446Z,7.30
2022-09-21T05:02:08.946Z,7.40
2022-09-21T05:04:35.939Z,7.40
2022-09-21T05:07:03.274Z,7.30
2022-09-21T05:09:48.639Z,7.30
2022-09-21T05:12:15.581Z,7.30
2022-09-21T05:14:44.214Z,7.30
2022-09-21T05:17:12.527Z,7.40
2022-09-21T05:19:40.298Z,7.30
2022-09-21T05:22:07.589Z,7.30
2022-09-21T05:24:34.877Z,7.30
2022-09-21T05:27:02.422Z,7.40
2022-09-21T05:29:29.634Z,7.40
2022-09-21T05:32:08.276Z,7.40
2022-09-21T05:34:51.322Z,7.50
2022-09-21T05:37:45.992Z,7.50
2022-09-21T05:40:14.132Z,7.50
2022-09-21T05:42:41.883Z,7.50
2022-09-21T05:45:18.052Z,7.60
2022-09-21T05:48:06.178Z,7.50
2022-09-21T05:50:51.948Z,7.60
2022-09-21T05:53:43.829Z,7.60
2022-09-21T05:56:24.098Z,7.60
2022-09-21T05:59:00.846Z,7.60
2022-09-21T06:01:59.414Z,7.60
2022-09-21T06:04:26.595Z,7.70
2022-09-21T06:06:54.017Z,7.60
2022-09-21T06:09:21.052Z,7.70
2022-09-21T06:11:48.498Z,7.60
2022-09-21T06:14:15.453Z,7.60
2022-09-21T06:16:43.308Z,7.70
2022-09-21T06:19:13.911Z,7.60
2022-09-21T06:21:41.142Z,7.70
2022-09-21T06:24:08.207Z,7.80
2022-09-21T06:26:35.252Z,7.80
2022-09-21T06:29:02.163Z,7.90
2022-09-21T06:31:29.154Z,8.00
2022-09-21T06:33:56.574Z,8.00
2022-09-21T06:36:23.534Z,8.00
2022-09-21T06:38:50.431Z,8.10
2022-09-21T06:41:21.016Z,8.10
2022-09-21T06:43:48.586Z,8.20
2022-09-21T06:46:15.651Z,8.20
2022-09-21T06:48:42.630Z,8.30
2022-09-21T06:51:10.310Z,8.40
2022-09-21T06:53:37.327Z,8.40
2022-09-21T06:56:08.883Z,8.50
2022-09-21T06:58:37.901Z,8.50
2022-09-21T07:01:09.878Z,8.60
2022-09-21T07:03:38.497Z,8.70
2022-09-21T07:06:06.897Z,8.70
2022-09-21T07:11:22.124Z,8.60
2022-09-21T07:13:49.232Z,8.70
2022-09-21T07:16:16.670Z,8.80
2022-09-21T07:18:44.247Z,8.90
2022-09-21T07:21:12.171Z,9.00
2022-09-21T07:23:39.196Z,9.10
2022-09-21T07:26:12.244Z,9.20
2022-09-21T07:28:39.402Z,9.30
2022-09-21T07:31:12.293Z,9.30
2022-09-21T07:33:39.546Z,9.40
2022-09-21T07:36:10.602Z,9.30
2022-09-21T07:38:43.208Z,9.40
2022-09-21T07:41:13.460Z,9.30
2022-09-21T07:43:41.118Z,9.20
2022-09-21T07:46:10.539Z,9.30
2022-09-21T07:48:37.906Z,9.30
2022-09-21T07:51:07.042Z,9.40
2022-09-21T07:53:35.882Z,9.50
2022-09-21T07:56:04.803Z,9.60
2022-09-21T07:58:50.701Z,9.60
2022-09-21T08:01:18.205Z,9.60
2022-09-21T08:03:45.285Z,9.60
2022-09-21T08:06:12.260Z,9.70
2022-09-21T08:08:39.677Z,9.70
2022-09-21T08:11:07.430Z,9.70
2022-09-21T08:13:34.857Z,9.80
2022-09-21T08:16:03.059Z,9.80
2022-09-21T08:18:30.817Z,9.90
2022-09-21T08:21:01.041Z,10.00
2022-09-21T08:23:29.339Z,10.10
2022-09-21T08:26:00.984Z,10.10
2022-09-21T08:28:34.127Z,10.00
2022-09-21T08:31:02.689Z,10.10
2022-09-21T08:33:29.979Z,10.10
2022-09-21T08:35:59.439Z,10.10
2022-09-21T08:38:27.430Z,10.20
2022-09-21T08:40:55.382Z,10.20
2022-09-21T08:43:36.146Z,10.20
2022-09-21T08:46:09.930Z,10.40
2022-09-21T08:48:42.799Z,10.50
2022-09-21T08:51:16.083Z,10.50
2022-09-21T08:53:46.585Z,10.50
2022-09-21T08:56:15.417Z,10.60
2022-09-21T08:58:43.708Z,10.70
2022-09-21T09:01:39.319Z,10.80
2022-09-21T09:04:33.695Z,11.00
2022-09-21T09:07:18.763Z,11.00
2022-09-21T09:10:13.216Z,11.10
2022-09-21T09:13:13.706Z,11.20
2022-09-21T09:15:56.772Z,11.50
2022-09-21T09:18:55.039Z,11.60
2022-09-21T09:21:37.887Z,11.80
2022-09-21T09:24:04.778Z,11.90
2022-09-21T09:26:50.669Z,12.20
2022-09-21T09:29:34.012Z,12.40
2022-09-21T09:32:02.398Z,12.70
2022-09-21T09:34:40.278Z,13.10
2022-09-21T09:37:15.940Z,15.00
2022-09-21T09:39:47.721Z,17.70
2022-09-21T09:42:23.483Z,20.00
2022-09-21T09:45:34.492Z,22.40
2022-09-21T09:48:32.671Z,24.40
2022-09-21T09:50:59.646Z,26.40
2022-09-21T09:53:27.619Z,27.80
2022-09-21T09:55:57.039Z,28.50
2022-09-21T09:58:48.148Z,30.20
2022-09-21T10:01:38.204Z,30.90
2022-09-21T10:04:10.745Z,30.90
2022-09-21T10:06:43.652Z,31.70
2022-09-21T10:09:31.358Z,32.20
2022-09-21T10:12:08.117Z,33.60
2022-09-21T10:14:37.107Z,34.50
2022-09-21T10:17:08.501Z,34.10
2022-09-21T10:19:35.709Z,34.30
2022-09-21T10:22:04.948Z,33.70
2022-09-21T10:24:36.203Z,34.20
2022-09-21T10:27:11.764Z,36.00
2022-09-21T10:29:46.991Z,36.60
2022-09-21T10:32:15.323Z,37.00
2022-09-21T10:35:10.506Z,36.60
2022-09-21T10:37:41.884Z,36.60
2022-09-21T10:40:17.838Z,36.20
2022-09-21T10:42:45.021Z,36.50
2022-09-21T10:45:21.725Z,36.50
2022-09-21T10:48:13.130Z,37.20
2022-09-21T10:50:42.829Z,37.70
2022-09-21T10:53:09.772Z,38.30
2022-09-21T10:56:11.848Z,39.60
2022-09-21T10:58:40.221Z,40.00
2022-09-21T11:01:13.844Z,40.50
2022-09-21T11:04:07.104Z,41.20
2022-09-21T11:06:42.551Z,41.10
2022-09-21T11:09:39.495Z,40.70
2022-09-21T11:12:32.109Z,40.20
2022-09-21T11:15:23.385Z,39.30
2022-09-21T11:18:04.143Z,38.40
2022-09-21T11:20:47.131Z,38.00
2022-09-21T11:23:41.508Z,37.30
2022-09-21T11:26:11.537Z,35.30
2022-09-21T11:29:07.092Z,34.70
2022-09-21T11:31:34.080Z,33.00
2022-09-21T11:34:07.407Z,32.00
2022-09-21T11:37:11.138Z,30.30
2022-09-21T11:40:05.215Z,29.90
2022-09-21T11:43:01.760Z,29.80
2022-09-21T11:45:46.135Z,30.30
2022-09-21T11:48:31.862Z,30.90
2022-09-21T11:51:14.162Z,31.60
2022-09-21T11:54:16.068Z,33.10
2022-09-21T11:56:56.015Z,33.70
2022-09-21T11:59:50.904Z,34.60
2022-09-21T12:02:41.273Z,35.00
2022-09-21T12:05:35.408Z,35.70
2022-09-21T12:08:10.979Z,35.40
2022-09-21T12:10:51.480Z,34.60
2022-09-21T12:13:18.483Z,34.80
2022-09-21T12:15:51.119Z,35.20
2022-09-21T12:18:49.903Z,33.60
2022-09-21T12:21:22.563Z,31.70
2022-09-21T12:23:52.249Z,31.20
2022-09-21T12:26:24.345Z,30.50
2022-09-21T12:29:05.301Z,29.70
2022-09-21T12:31:37.757Z,29.10
2022-09-21T12:34:16.084Z,29.30
2022-09-21T12:37:19.019Z,28.90
2022-09-21T12:40:07.514Z,28.80
2022-09-21T12:42:43.303Z,29.20
2022-09-21T12:45:21.510Z,29.20
2022-09-21T12:48:08.873Z,29.60
2022-09-21T12:50:51.008Z,30.10
2022-09-21T12:53:21.695Z,30.80
2022-09-21T12:56:20.343Z,31.50
2022-09-21T12:59:24.876Z,32.00
2022-09-21T13:01:57.415Z,32.50
2022-09-21T13:04:49.958Z,33.70
2022-09-21T13:07:32.839Z,34.20
2022-09-21T13:10:15.837Z,34.80
2022-09-21T13:12:45.108Z,35.30
2022-09-21T13:15:30.451Z,35.70
2022-09-21T13:18:00.555Z,36.30
2022-09-21T13:20:32.935Z,36.70
2022-09-21T13:23:02.238Z,36.50
2022-09-21T13:25:32.663Z,36.20
2022-09-21T13:28:15.684Z,36.00
2022-09-21T13:30:45.389Z,35.00
2022-09-21T13:33:21.581Z,34.50
2022-09-21T13:35:51.234Z,33.90
2022-09-21T13:38:29.489Z,33.40
2022-09-21T13:41:19.526Z,32.50
2022-09-21T13:44:04.201Z,31.80
2022-09-21T13:46:38.062Z,31.00
2022-09-21T13:49:10.841Z,30.40
2022-09-21T13:52:01.821Z,29.80
2022-09-21T13:54:45.464Z,29.10
2022-09-21T13:57:24.136Z,28.30
2022-09-21T14:00:13.752Z,27.80
2022-09-21T14:02:54.897Z,26.90
2022-09-21T14:06:08.754Z,26.30
2022-09-21T14:08:49.327Z,26.00
2022-09-21T14:11:41.176Z,25.60
2022-09-21T14:14:33.960Z,25.40
2022-09-21T14:17:02.605Z,25.10
2022-09-21T14:19:33.272Z,24.90
2022-09-21T14:22:09.662Z,24.80
2022-09-21T14:24:45.483Z,24.70
2022-09-21T14:27:46.403Z,24.50
2022-09-21T14:30:20.331Z,24.20
2022-09-21T14:33:12.837Z,24.00
2022-09-21T14:35:47.564Z,23.90
2022-09-21T14:38:26.189Z,24.10
2022-09-21T14:41:01.860Z,24.20
2022-09-21T14:43:36.440Z,23.90
2022-09-21T14:46:10.274Z,23.70
2022-09-21T14:48:46.872Z,23.60
2022-09-21T14:51:38.365Z,23.20
2022-09-21T14:54:14.516Z,23.20
2022-09-21T14:56:55.630Z,23.10
2022-09-21T14:59:34.552Z,23.00
2022-09-21T15:02:11.343Z,22.90
2022-09-21T15:05:01.445Z,22.80
2022-09-21T15:08:00.007Z,22.70
2022-09-21T15:10:56.415Z,22.50
2022-09-21T15:13:29.774Z,22.30
2022-09-21T15:16:18.083Z,21.90
2022-09-21T15:18:51.398Z,21.70
2022-09-21T15:21:28.195Z,21.40
2022-09-21T15:23:55.683Z,21.10
2022-09-21T15:26:33.029Z,20.90
2022-09-21T15:29:09.778Z,20.70
2022-09-21T15:31:40.609Z,20.70
2022-09-21T15:34:09.218Z,20.60
2022-09-21T15:36:40.229Z,20.70
2022-09-21T15:39:07.668Z,20.60
2022-09-21T15:41:45.015Z,20.80
2022-09-21T15:44:32.766Z,20.90
2022-09-21T15:47:03.368Z,21.00
2022-09-21T15:49:30.621Z,21.10
2022-09-21T15:52:13.061Z,21.20
2022-09-21T15:54:46.178Z,21.30
2022-09-21T15:57:29.570Z,21.20
2022-09-21T15:59:56.604Z,21.20
2022-09-21T16:02:26.588Z,21.30
2022-09-21T16:04:53.947Z,21.30
2022-09-21T16:07:30.589Z,21.10
2022-09-21T16:09:57.653Z,21.10
2022-09-21T16:12:39.611Z,21.10
2022-09-21T16:15:17.752Z,21.10
2022-09-21T16:17:58.533Z,21.10
2022-09-21T16:20:45.832Z,21.10
2022-09-21T16:23:19.372Z,21.10
2022-09-21T16:25:55.044Z,21.10
2022-09-21T16:28:22.573Z,21.10
2022-09-21T16:30:51.488Z,21.00
2022-09-21T16:33:49.061Z,20.90
2022-09-21T16:36:34.103Z,20.90
2022-09-21T16:39:12.781Z,20.70
2022-09-21T16:41:48.658Z,20.80
2022-09-21T16:44:22.842Z,20.80
2022-09-21T16:47:01.830Z,20.60
2022-09-21T16:49:32.763Z,20.40
2022-09-21T16:52:00.091Z,20.20
2022-09-21T16:54:27.784Z,20.10
2022-09-21T16:56:57.618Z,19.90
2022-09-21T16:59:25.441Z,19.80
2022-09-21T17:01:56.552Z,19.80
2022-09-21T17:04:26.930Z,19.70
2022-09-21T17:06:55.426Z,19.50
2022-09-21T17:09:33.882Z,19.40
2022-09-21T17:12:03.178Z,19.20
2022-09-21T17:14:40.040Z,19.00
2022-09-21T17:17:15.064Z,18.90
2022-09-21T17:19:42.287Z,18.70
2022-09-21T17:22:17.320Z,18.60
2022-09-21T17:24:50.856Z,18.50
2022-09-21T17:27:20.267Z,18.30
2022-09-21T17:29:48.508Z,18.20
2022-09-21T17:32:17.978Z,18.10
2022-09-21T17:34:46.124Z,17.90
2022-09-21T17:37:13.140Z,17.80
2022-09-21T17:39:41.785Z,17.60
2022-09-21T17:42:19.086Z,17.50
2022-09-21T17:45:13.639Z,17.40
2022-09-21T17:47:41.653Z,17.20
2022-09-21T17:50:20.980Z,17.00
2022-09-21T17:53:07.016Z,16.80
2022-09-21T17:55:34.251Z,16.70
2022-09-21T17:58:23.439Z,16.50
2022-09-21T18:01:04.377Z,16.40
2022-09-21T18:03:36.066Z,16.30
2022-09-21T18:06:03.873Z,16.20
2022-09-21T18:08:36.285Z,16.10
2022-09-21T18:11:26.550Z,16.00
2022-09-21T18:14:11.332Z,15.90
2022-09-21T18:16:53.308Z,15.70
2022-09-21T18:19:35.371Z,15.60
2022-09-21T18:22:34.739Z,15.40
2022-09-21T18:25:12.195Z,15.30
2022-09-21T18:27:39.374Z,15.20
2022-09-21T18:30:08.030Z,15.20
2022-09-21T18:32:53.815Z,15.00
2022-09-21T18:35:58.672Z,14.90
2022-09-21T18:39:05.225Z,14.80
2022-09-21T18:41:46.368Z,14.60
2022-09-21T18:44:30.648Z,14.60
2022-09-21T18:47:12.556Z,14.50
2022-09-21T18:50:15.171Z,14.50
2022-09-21T18:52:47.541Z,14.50
2022-09-21T18:55:41.279Z,14.40
2022-09-21T18:58:10.499Z,14.30
2022-09-21T19:00:37.574Z,14.30
2022-09-21T19:03:17.750Z,14.20
2022-09-21T19:06:27.466Z,14.20
2022-09-21T19:09:06.244Z,14.00
2022-09-21T19:11:51.864Z,13.90
2022-09-21T19:14:47.696Z,13.80
2022-09-21T19:17:35.792Z,13.80
2022-09-21T19:20:33.359Z,13.70
2022-09-21T19:23:06.347Z,13.60
2022-09-21T19:25:53.545Z,13.50
2022-09-21T19:29:02.190Z,13.50
2022-09-21T19:31:29.727Z,13.40
2022-09-21T19:33:56.794Z,13.20
2022-09-21T19:36:24.422Z,13.10
2022-09-21T19:38:51.775Z,13.10
2022-09-21T19:41:35.324Z,13.00
2022-09-21T19:44:29.800Z,12.90
2022-09-21T19:47:16.692Z,12.80
2022-09-21T19:49:50.830Z,12.70
2022-09-21T19:52:19.565Z,12.70
2022-09-21T19:55:04.999Z,12.70
2022-09-21T19:57:52.226Z,12.70
2022-09-21T20:00:19.453Z,12.60
2022-09-21T20:03:05.954Z,12.50
2022-09-21T20:05:35.279Z,12.40
2022-09-21T20:08:24.688Z,12.40
2022-09-21T20:10:54.647Z,12.30
2022-09-21T20:13:38.944Z,12.30
2022-09-21T20:16:40.342Z,12.30
2022-09-21T20:19:18.447Z,12.20
2022-09-21T20:21:47.281Z,12.10
2022-09-21T20:24:20.240Z,12.10
2022-09-21T20:26:51.045Z,12.00
2022-09-21T20:29:19.733Z,11.90
2022-09-21T20:31:49.050Z,11.90
2022-09-21T20:34:15.987Z,11.90
2022-09-21T20:36:43.108Z,11.80
2022-09-21T20:39:10.445Z,11.80
2022-09-21T20:41:38.075Z,11.80
2022-09-21T20:44:05.060Z,11.80
2022-09-21T20:46:32.085Z,11.70
2022-09-21T20:49:05.458Z,11.70
2022-09-21T20:51:36.129Z,11.60
2022-09-21T20:54:03.960Z,11.50
2022-09-21T20:56:31.594Z,11.40
2022-09-21T20:58:59.430Z,11.40
2022-09-21T21:01:27.139Z,11.30
2022-09-21T21:04:01.818Z,11.30
2022-09-21T21:06:31.314Z,11.20
2022-09-21T21:08:58.585Z,11.10
2022-09-21T21:11:28.193Z,11.10
2022-09-21T21:13:56.231Z,11.20
2022-09-21T21:16:23.657Z,11.10
2022-09-21T21:18:50.913Z,11.00
2022-09-21T21:21:17.957Z,11.00
2022-09-21T21:24:07.810Z,11.00
2022-09-21T21:27:00.189Z,10.90
2022-09-21T21:29:22.534Z,10.80
2022-09-21T21:31:49.923Z,10.80
2022-09-21T21:34:17.073Z,10.80
2022-09-21T21:36:43.989Z,10.80
2022-09-21T21:39:10.972Z,10.80
2022-09-21T21:41:37.979Z,10.70
2022-09-21T21:44:04.951Z,10.60
2022-09-21T21:46:31.992Z,10.70
2022-09-21T21:48:58.983Z,10.70
2022-09-21T21:51:25.991Z,10.60
2022-09-21T21:53:52.934Z,10.60
2022-09-21T21:56:22.801Z,10.60
2022-09-21T21:58:54.356Z,10.50
2022-09-21T22:01:24.763Z,10.50
2022-09-21T22:03:57.741Z,10.50
2022-09-21T22:06:26.088Z,10.50
2022-09-21T22:08:54.410Z,10.40
2022-09-21T22:11:22.402Z,10.40
2022-09-21T22:13:50.463Z,10.40
2022-09-21T22:16:24.269Z,10.40
2022-09-21T22:18:52.598Z,10.30
2022-09-21T22:21:22.254Z,10.30
2022-09-21T22:24:00.740Z,10.20
2022-09-21T22:26:29.403Z,10.20
2022-09-21T22:28:59.435Z,10.20
2022-09-21T22:31:31.883Z,10.20
2022-09-21T22:33:59.766Z,10.20
2022-09-21T22:36:32.263Z,10.10
2022-09-21T22:38:59.981Z,10.10
2022-09-21T22:41:30.585Z,10.00
2022-09-21T22:43:59.472Z,10.00
2022-09-21T22:46:28.247Z,9.90
2022-09-21T22:48:55.324Z,9.90
2022-09-21T22:51:22.786Z,9.90
2022-09-21T22:53:51.110Z,9.80
2022-09-21T22:56:23.117Z,9.80
2022-09-21T22:58:53.438Z,9.80
2022-09-21T23:01:25.538Z,9.70
2022-09-21T23:03:55.437Z,9.70
2022-09-21T23:06:26.641Z,9.60
2022-09-21T23:08:55.340Z,9.60
2022-09-21T23:11:34.844Z,9.50
2022-09-21T23:14:02.005Z,9.40
2022-09-21T23:16:29.953Z,9.50
2022-09-21T23:18:57.999Z,9.40
2022-09-21T23:21:27.659Z,9.40
2022-09-21T23:24:05.456Z,9.30
2022-09-21T23:26:34.080Z,9.30
2022-09-21T23:29:09.006Z,9.30
2022-09-21T23:31:36.039Z,9.30
2022-09-21T23:34:08.587Z,9.20
2022-09-21T23:36:36.662Z,9.20
2022-09-21T23:39:06.183Z,9.20
2022-09-21T23:41:35.932Z,9.20
2022-09-21T23:44:04.161Z,9.10
2022-09-21T23:46:33.792Z,9.10
2022-09-21T23:49:01.131Z,9.10
2022-09-21T23:51:30.121Z,9.10
2022-09-21T23:53:58.237Z,9.10
2022-09-21T23:56:25.787Z,9.00
2022-09-21T23:58:53.212Z,9.00
